createdAt,value
2023-04-11T00:01:50.135Z,6.36
2023-04-11T00:04:21.142Z,6.32
2023-04-11T00:06:49.545Z,6.27
2023-04-11T00:09:18.841Z,6.28
2023-04-11T00:11:48.447Z,6.30
2023-04-11T00:14:19.894Z,6.31
2023-04-11T00:16:58.921Z,6.31
2023-04-11T00:19:33.646Z,6.32
2023-04-11T00:22:10.328Z,6.31
2023-04-11T00:24:41.656Z,6.30
2023-04-11T00:27:14.703Z,6.31
2023-04-11T00:29:43.860Z,6.31
2023-04-11T00:32:14.579Z,6.29
2023-04-11T00:34:47.521Z,6.23
2023-04-11T00:37:16.162Z,6.16
2023-04-11T00:39:52.227Z,6.21
2023-04-11T00:42:21.844Z,6.27
2023-04-11T00:44:58.668Z,6.29
2023-04-11T00:47:28.448Z,6.26
2023-04-11T00:50:12.768Z,6.23
2023-04-11T00:52:54.434Z,6.19
2023-04-11T00:55:25.908Z,6.18
2023-04-11T00:57:55.843Z,6.16
2023-04-11T01:00:29.854Z,6.16
2023-04-11T01:03:00.222Z,6.15
2023-04-11T01:05:32.862Z,6.12
2023-04-11T01:08:01.574Z,6.09
2023-04-11T01:10:33.329Z,6.11
2023-04-11T01:13:02.103Z,6.16
2023-04-11T01:15:40.959Z,6.16
2023-04-11T01:18:11.860Z,6.11
2023-04-11T01:20:42.792Z,6.06
2023-04-11T01:23:12.228Z,5.98
2023-04-11T01:25:41.040Z,5.87
2023-04-11T01:28:10.933Z,5.82
2023-04-11T01:30:40.354Z,5.84
2023-04-11T01:33:13.836Z,5.86
2023-04-11T01:35:42.561Z,5.89
2023-04-11T01:38:13.459Z,5.90
2023-04-11T01:40:42.863Z,5.87
2023-04-11T01:43:14.112Z,5.86
2023-04-11T01:45:44.535Z,5.90
2023-04-11T01:48:16.263Z,5.94
2023-04-11T01:50:47.344Z,5.96
2023-04-11T01:53:16.534Z,5.93
2023-04-11T01:55:49.215Z,5.85
2023-04-11T01:58:19.126Z,5.74
2023-04-11T02:00:47.408Z,5.64
2023-04-11T02:03:21.311Z,5.64
2023-04-11T02:05:50.201Z,5.69
2023-04-11T02:08:19.195Z,5.75
2023-04-11T02:10:47.576Z,5.80
2023-04-11T02:13:16.161Z,5.81
2023-04-11T02:15:49.463Z,5.80
2023-04-11T02:18:18.721Z,5.77
2023-04-11T02:20:48.060Z,5.76
2023-04-11T02:23:16.640Z,5.79
2023-04-11T02:25:47.218Z,5.80
2023-04-11T02:28:15.752Z,5.78
2023-04-11T02:30:44.170Z,5.76
2023-04-11T02:33:13.025Z,5.70
2023-04-11T02:35:42.866Z,5.62
2023-04-11T02:38:12.548Z,5.57
2023-04-11T02:40:41.859Z,5.56
2023-04-11T02:43:11.971Z,5.54
2023-04-11T02:45:41.578Z,5.48
2023-04-11T02:48:10.987Z,5.41
2023-04-11T02:50:44.390Z,5.33
2023-04-11T02:53:16.649Z,5.25
2023-04-11T02:55:52.195Z,5.21
2023-04-11T02:58:21.493Z,5.20
2023-04-11T03:00:51.008Z,5.21
2023-04-11T03:03:28.093Z,5.19
2023-04-11T03:05:57.393Z,5.15
2023-04-11T03:08:26.587Z,5.09
2023-04-11T03:10:57.016Z,5.01
2023-04-11T03:13:26.922Z,4.98
2023-04-11T03:15:57.137Z,4.99
2023-04-11T03:18:27.887Z,5.02
2023-04-11T03:20:57.060Z,5.07
2023-04-11T03:23:32.742Z,5.10
2023-04-11T03:26:03.349Z,5.13
2023-04-11T03:28:32.337Z,5.16
2023-04-11T03:31:03.624Z,5.19
2023-04-11T03:33:33.105Z,5.22
2023-04-11T03:36:02.674Z,5.24
2023-04-11T03:38:33.877Z,5.26
2023-04-11T03:41:02.305Z,5.28
2023-04-11T03:43:31.134Z,5.28
2023-04-11T03:46:00.947Z,5.28
2023-04-11T03:48:42.243Z,5.29
2023-04-11T03:51:11.142Z,5.32
2023-04-11T03:53:49.131Z,5.41
2023-04-11T03:56:47.303Z,5.51
2023-04-11T03:59:24.845Z,5.61
2023-04-11T04:01:58.237Z,5.70
2023-04-11T04:04:27.220Z,5.84
2023-04-11T04:07:10.592Z,5.98
2023-04-11T04:09:42.448Z,6.07
2023-04-11T04:12:11.439Z,6.13
2023-04-11T04:15:07.077Z,6.17
2023-04-11T04:17:37.107Z,6.21
2023-04-11T04:20:11.070Z,6.29
2023-04-11T04:22:42.124Z,6.36
2023-04-11T04:25:12.994Z,6.41
2023-04-11T04:27:58.362Z,6.44
2023-04-11T04:30:29.151Z,6.46
2023-04-11T04:33:12.648Z,6.46
2023-04-11T04:35:46.032Z,6.51
2023-04-11T04:38:31.090Z,6.59
2023-04-11T04:43:27.617Z,6.73
2023-04-11T04:46:17.060Z,6.75
2023-04-11T04:48:51.867Z,6.79
2023-04-11T04:51:22.521Z,6.87
2023-04-11T04:53:53.046Z,7.00
2023-04-11T04:56:38.282Z,7.09
2023-04-11T04:59:08.678Z,7.19
2023-04-11T05:01:40.377Z,7.26
2023-04-11T05:04:10.718Z,7.31
2023-04-11T05:06:51.223Z,7.38
2023-04-11T05:09:27.694Z,7.48
2023-04-11T05:12:01.702Z,7.62
2023-04-11T05:14:32.676Z,7.79
2023-04-11T05:17:02.472Z,7.97
2023-04-11T05:20:06.992Z,8.12
2023-04-11T05:22:37.047Z,8.31
2023-04-11T05:25:11.816Z,8.44
2023-04-11T05:27:41.671Z,8.60
2023-04-11T05:30:11.158Z,8.72
2023-04-11T05:32:54.372Z,8.85
2023-04-11T05:35:25.991Z,9.00
2023-04-11T05:38:04.124Z,9.21
2023-04-11T05:40:33.362Z,9.40
2023-04-11T05:43:01.953Z,9.56
2023-04-11T05:45:33.616Z,9.69
2023-04-11T05:48:02.218Z,9.81
2023-04-11T05:50:30.983Z,9.91
2023-04-11T05:53:00.284Z,10.04
2023-04-11T05:55:30.305Z,10.14
2023-04-11T05:57:59.929Z,10.23
2023-04-11T06:00:32.918Z,10.33
2023-04-11T06:03:10.876Z,10.49
2023-04-11T06:05:40.812Z,10.68
2023-04-11T06:08:16.344Z,10.87
2023-04-11T06:10:45.534Z,11.02
2023-04-11T06:13:18.213Z,11.17
2023-04-11T06:15:48.053Z,11.29
2023-04-11T06:18:23.217Z,11.41
2023-04-11T06:20:56.443Z,11.53
2023-04-11T06:23:25.432Z,11.63
2023-04-11T06:25:56.734Z,11.74
2023-04-11T06:28:25.264Z,11.82
2023-04-11T06:30:53.708Z,11.90
2023-04-11T06:33:23.993Z,11.99
2023-04-11T06:35:57.383Z,12.12
2023-04-11T06:38:26.721Z,12.28
2023-04-11T06:41:00.143Z,12.46
2023-04-11T06:43:32.234Z,12.62
2023-04-11T06:46:09.487Z,12.78
2023-04-11T06:48:39.334Z,12.95
2023-04-11T06:51:10.729Z,13.08
2023-04-11T06:53:42.493Z,13.19
2023-04-11T06:56:11.100Z,13.29
2023-04-11T06:58:39.836Z,13.40
2023-04-11T07:01:09.596Z,13.50
2023-04-11T07:03:41.185Z,13.62
2023-04-11T07:06:11.168Z,13.73
2023-04-11T07:08:42.437Z,13.84
2023-04-11T07:11:12.617Z,13.98
2023-04-11T07:13:42.888Z,14.11
2023-04-11T07:16:11.424Z,14.26
2023-04-11T07:18:42.695Z,14.46
2023-04-11T07:21:13.739Z,14.67
2023-04-11T07:31:32.371Z,15.13
2023-04-11T07:34:01.302Z,15.23
2023-04-11T07:36:32.016Z,15.41
2023-04-11T07:39:00.922Z,15.52
2023-04-11T07:41:33.072Z,15.63
2023-04-11T07:44:06.831Z,15.75
2023-04-11T07:46:35.887Z,15.93
2023-04-11T07:49:04.750Z,16.12
2023-04-11T07:51:33.539Z,16.23
2023-04-11T07:54:02.640Z,16.36
2023-04-11T07:56:31.131Z,16.50
2023-04-11T07:59:01.848Z,16.51
2023-04-11T08:01:30.139Z,16.54
2023-04-11T08:03:59.034Z,16.66
2023-04-11T08:06:29.420Z,16.85
2023-04-11T08:09:01.110Z,17.03
2023-04-11T08:11:30.712Z,17.16
2023-04-11T08:14:05.056Z,17.31
2023-04-11T08:16:35.921Z,17.47
2023-04-11T08:19:04.147Z,17.60
2023-04-11T08:21:38.175Z,17.77
2023-04-11T08:24:08.635Z,17.90
2023-04-11T08:26:37.990Z,17.92
2023-04-11T08:29:16.513Z,17.89
2023-04-11T08:31:45.907Z,17.98
2023-04-11T08:34:14.359Z,18.11
2023-04-11T08:36:43.047Z,18.22
2023-04-11T08:39:12.351Z,18.34
2023-04-11T08:41:43.684Z,18.51
2023-04-11T08:44:13.503Z,18.66
2023-04-11T08:46:42.807Z,18.73
2023-04-11T08:49:12.024Z,18.57
2023-04-11T08:51:42.625Z,18.51
2023-04-11T08:54:11.311Z,18.51
2023-04-11T08:56:43.412Z,18.57
2023-04-11T08:59:18.769Z,18.57
2023-04-11T09:01:50.048Z,18.56
2023-04-11T09:04:19.332Z,18.66
2023-04-11T09:06:58.448Z,18.62
2023-04-11T09:09:30.263Z,18.37
2023-04-11T09:12:01.337Z,17.97
2023-04-11T09:14:30.976Z,17.52
2023-04-11T09:17:00.540Z,17.23
2023-04-11T09:19:31.843Z,16.99
2023-04-11T09:22:05.108Z,16.66
2023-04-11T09:24:35.609Z,16.50
2023-04-11T09:27:08.923Z,16.38
2023-04-11T09:29:40.398Z,16.18
2023-04-11T09:32:27.782Z,16.02
2023-04-11T09:35:16.028Z,16.01
2023-04-11T09:37:49.698Z,16.16
2023-04-11T09:40:19.766Z,16.15
2023-04-11T09:42:57.561Z,15.91
2023-04-11T09:45:26.762Z,15.67
2023-04-11T09:47:58.182Z,15.54
2023-04-11T09:50:27.621Z,15.50
2023-04-11T09:52:58.501Z,15.53
2023-04-11T09:55:27.639Z,15.59
2023-04-11T09:57:57.872Z,15.65
2023-04-11T10:00:30.617Z,15.74
2023-04-11T10:03:00.012Z,15.87
2023-04-11T10:05:32.053Z,15.98
2023-04-11T10:08:19.939Z,16.11
2023-04-11T10:10:48.410Z,16.33
2023-04-11T10:13:51.895Z,16.74
2023-04-11T10:16:25.694Z,17.30
2023-04-11T10:18:56.455Z,17.68
2023-04-11T10:21:29.745Z,18.09
2023-04-11T10:24:21.951Z,18.41
2023-04-11T10:27:00.603Z,18.46
2023-04-11T10:29:29.762Z,18.44
2023-04-11T10:32:14.667Z,18.36
2023-04-11T10:34:50.179Z,18.32
2023-04-11T10:37:37.680Z,18.56
2023-04-11T10:40:11.212Z,18.93
2023-04-11T10:42:48.436Z,19.01
2023-04-11T10:45:24.786Z,18.97
2023-04-11T10:47:58.078Z,19.07
2023-04-11T10:50:26.985Z,19.53
2023-04-11T10:52:56.871Z,19.95
2023-04-11T10:55:50.099Z,20.17
2023-04-11T10:58:26.183Z,20.31
2023-04-11T11:01:00.764Z,20.32
2023-04-11T11:03:32.716Z,20.50
2023-04-11T11:06:03.026Z,20.86
2023-04-11T11:08:35.095Z,21.24
2023-04-11T11:11:08.696Z,21.39
2023-04-11T11:13:41.989Z,21.33
2023-04-11T11:16:14.294Z,21.13
2023-04-11T11:18:56.535Z,20.79
2023-04-11T11:21:28.420Z,20.49
2023-04-11T11:24:01.698Z,20.23
2023-04-11T11:26:39.361Z,19.96
2023-04-11T11:29:09.748Z,19.60
2023-04-11T11:31:46.021Z,19.23
2023-04-11T11:34:23.737Z,18.95
2023-04-11T11:36:57.005Z,18.78
2023-04-11T11:39:26.299Z,18.56
2023-04-11T11:41:58.080Z,18.37
2023-04-11T11:44:53.382Z,18.17
2023-04-11T11:47:41.885Z,17.90
2023-04-11T11:50:12.368Z,17.69
2023-04-11T11:52:43.827Z,17.53
2023-04-11T11:55:18.431Z,17.57
2023-04-11T11:57:50.856Z,17.72
2023-04-11T12:00:26.481Z,17.89
2023-04-11T12:02:56.252Z,18.03
2023-04-11T12:05:30.523Z,18.10
2023-04-11T12:08:05.475Z,17.89
2023-04-11T12:10:38.963Z,17.53
2023-04-11T12:13:23.949Z,17.30
2023-04-11T12:15:54.830Z,17.21
2023-04-11T12:18:25.456Z,17.23
2023-04-11T12:20:54.134Z,17.27
2023-04-11T12:23:23.159Z,17.25
2023-04-11T12:25:52.448Z,17.36
2023-04-11T12:28:21.647Z,17.57
2023-04-11T12:30:50.009Z,17.88
2023-04-11T12:33:19.105Z,18.30
2023-04-11T12:35:49.446Z,18.61
2023-04-11T12:38:26.340Z,18.54
2023-04-11T12:41:13.960Z,18.29
2023-04-11T12:43:44.384Z,18.04
2023-04-11T12:46:14.306Z,18.02
2023-04-11T12:48:43.786Z,18.00
2023-04-11T12:51:12.169Z,17.96
2023-04-11T12:53:44.439Z,17.88
2023-04-11T12:56:13.126Z,17.82
2023-04-11T12:58:42.218Z,17.77
2023-04-11T13:01:10.506Z,17.73
2023-04-11T13:03:41.837Z,17.81
2023-04-11T13:06:14.338Z,17.94
2023-04-11T13:08:43.314Z,18.01
2023-04-11T13:11:12.255Z,18.03
2023-04-11T13:13:42.680Z,18.18
2023-04-11T13:16:12.382Z,18.32
2023-04-11T13:18:41.461Z,18.44
2023-04-11T13:21:10.374Z,18.47
2023-04-11T13:23:38.861Z,18.36
2023-04-11T13:26:07.827Z,18.22
2023-04-11T13:28:39.305Z,18.12
2023-04-11T13:31:10.620Z,18.09
2023-04-11T13:33:50.208Z,17.98
2023-04-11T13:36:20.543Z,17.82
2023-04-11T13:38:57.374Z,17.55
2023-04-11T13:41:30.101Z,17.21
2023-04-11T13:43:58.907Z,16.97
2023-04-11T13:46:30.568Z,16.84
2023-04-11T13:49:00.581Z,16.78
2023-04-11T13:51:29.395Z,16.78
2023-04-11T13:54:10.148Z,16.84
2023-04-11T13:56:38.937Z,16.94
2023-04-11T13:59:08.846Z,17.05
2023-04-11T14:01:38.128Z,17.16
2023-04-11T14:04:07.657Z,17.24
2023-04-11T14:06:37.769Z,17.34
2023-04-11T14:09:06.568Z,17.43
2023-04-11T14:11:38.422Z,17.43
2023-04-11T14:14:06.819Z,17.14
2023-04-11T14:16:35.622Z,16.77
2023-04-11T14:19:04.181Z,16.53
2023-04-11T14:21:32.971Z,16.31
2023-04-11T14:24:02.535Z,16.16
2023-04-11T14:26:44.064Z,16.06
2023-04-11T14:29:13.770Z,16.02
2023-04-11T14:31:42.344Z,15.98
2023-04-11T14:34:11.878Z,15.96
2023-04-11T14:36:43.010Z,15.99
2023-04-11T14:39:12.829Z,15.97
2023-04-11T14:41:42.263Z,15.93
2023-04-11T14:44:10.795Z,15.91
2023-04-11T14:46:39.552Z,16.01
2023-04-11T14:49:07.978Z,16.11
2023-04-11T14:51:44.440Z,16.18
2023-04-11T14:54:13.014Z,16.15
2023-04-11T14:56:42.009Z,16.04
2023-04-11T14:59:22.331Z,15.88
2023-04-11T15:01:51.852Z,15.76
2023-04-11T15:04:21.279Z,15.73
2023-04-11T15:06:58.153Z,15.68
2023-04-11T15:09:28.071Z,15.64
2023-04-11T15:11:59.435Z,15.60
2023-04-11T15:14:29.667Z,15.56
2023-04-11T15:16:58.747Z,15.50
2023-04-11T15:19:28.660Z,15.41
2023-04-11T15:22:02.197Z,15.30
2023-04-11T15:24:34.734Z,15.20
2023-04-11T15:27:03.729Z,15.11
2023-04-11T15:29:45.515Z,14.98
2023-04-11T15:32:14.208Z,14.85
2023-04-11T15:34:46.580Z,14.75
2023-04-11T15:37:16.497Z,14.67
2023-04-11T15:39:46.202Z,14.61
2023-04-11T15:42:21.034Z,14.55
2023-04-11T15:44:50.138Z,14.49
2023-04-11T15:47:21.968Z,14.41
2023-04-11T15:49:51.562Z,14.33
2023-04-11T15:52:21.515Z,14.24
2023-04-11T15:54:54.485Z,14.16
2023-04-11T15:57:26.522Z,14.10
2023-04-11T15:59:56.628Z,14.02
2023-04-11T16:02:25.384Z,13.91
2023-04-11T16:04:55.590Z,13.82
2023-04-11T16:07:24.372Z,13.75
2023-04-11T16:09:55.921Z,13.72
2023-04-11T16:12:24.705Z,13.67
2023-04-11T16:14:54.624Z,13.60
2023-04-11T16:17:26.453Z,13.53
2023-04-11T16:19:57.126Z,13.47
2023-04-11T16:22:26.510Z,13.39
2023-04-11T16:24:56.513Z,13.33
2023-04-11T16:27:25.254Z,13.29
2023-04-11T16:30:01.431Z,13.23
2023-04-11T16:32:32.962Z,13.18
2023-04-11T16:35:01.572Z,13.11
2023-04-11T16:37:31.637Z,13.07
2023-04-11T16:40:00.574Z,13.02
2023-04-11T16:42:28.792Z,12.96
2023-04-11T16:44:57.171Z,12.90
2023-04-11T16:47:26.476Z,12.83
2023-04-11T16:49:55.249Z,12.83
2023-04-11T16:52:23.927Z,12.87
2023-04-11T16:54:55.618Z,12.90
2023-04-11T16:57:25.081Z,12.91
2023-04-11T17:02:14.807Z,12.89
2023-04-11T17:04:43.351Z,12.80
2023-04-11T17:07:14.990Z,12.74
2023-04-11T17:09:44.274Z,12.68
2023-04-11T17:12:12.570Z,12.63
2023-04-11T17:14:42.672Z,12.58
2023-04-11T17:17:11.483Z,12.53
2023-04-11T17:19:40.940Z,12.46
2023-04-11T17:22:09.487Z,12.39
2023-04-11T17:24:38.416Z,12.32
2023-04-11T17:27:09.431Z,12.27
2023-04-11T17:29:38.590Z,12.27
2023-04-11T17:32:08.567Z,12.32
2023-04-11T17:34:37.138Z,12.37
2023-04-11T17:37:07.051Z,12.36
2023-04-11T17:39:35.653Z,12.35
2023-04-11T17:42:06.695Z,12.33
2023-04-11T17:44:35.592Z,12.30
2023-04-11T17:47:03.745Z,12.29
2023-04-11T17:49:33.149Z,12.28
2023-04-11T17:52:02.079Z,12.26
2023-04-11T17:54:30.862Z,12.25
2023-04-11T17:56:59.142Z,12.25
2023-04-11T17:59:33.577Z,12.25
2023-04-11T18:02:02.222Z,12.26
2023-04-11T18:04:32.470Z,12.25
2023-04-11T18:07:03.245Z,12.24
2023-04-11T18:09:33.995Z,12.23
2023-04-11T18:12:02.660Z,12.22
2023-04-11T18:14:35.238Z,12.20
2023-04-11T18:17:05.464Z,12.18
2023-04-11T18:19:34.145Z,12.15
2023-04-11T18:22:02.554Z,12.12
2023-04-11T18:24:33.876Z,12.12
2023-04-11T18:27:02.561Z,12.10
2023-04-11T18:29:35.547Z,12.10
2023-04-11T18:32:06.799Z,12.09
2023-04-11T18:34:36.712Z,12.08
2023-04-11T18:37:05.212Z,12.05
2023-04-11T18:39:33.569Z,12.01
2023-04-11T18:42:04.781Z,12.01
2023-04-11T18:44:34.739Z,12.00
2023-04-11T18:47:05.116Z,11.99
2023-04-11T18:49:36.387Z,11.95
2023-04-11T18:52:04.797Z,11.94
2023-04-11T18:54:33.473Z,11.92
2023-04-11T18:57:04.681Z,11.90
2023-04-11T18:59:37.462Z,11.87
2023-04-11T19:02:12.599Z,11.83
2023-04-11T19:04:44.133Z,11.80
2023-04-11T19:07:14.205Z,11.78
2023-04-11T19:09:44.326Z,11.76
2023-04-11T19:12:16.394Z,11.73
2023-04-11T19:14:44.770Z,11.72
2023-04-11T19:17:13.354Z,11.72
2023-04-11T19:19:44.559Z,11.74
2023-04-11T19:22:13.391Z,11.75
2023-04-11T19:24:41.875Z,11.76
2023-04-11T19:27:10.180Z,11.77
2023-04-11T19:29:41.101Z,11.76
2023-04-11T19:32:09.847Z,11.74
2023-04-11T19:34:38.774Z,11.72
2023-04-11T19:37:08.380Z,11.73
2023-04-11T19:39:38.329Z,11.81
2023-04-11T19:42:09.046Z,11.87
2023-04-11T19:44:38.640Z,11.89
2023-04-11T19:47:07.119Z,11.88
2023-04-11T19:49:35.906Z,11.85
2023-04-11T19:52:04.694Z,11.81
2023-04-11T19:54:34.518Z,11.75
2023-04-11T19:57:03.000Z,11.68
2023-04-11T19:59:31.274Z,11.60
2023-04-11T20:02:01.915Z,11.51
2023-04-11T20:04:32.854Z,11.42
2023-04-11T20:07:03.582Z,11.34
2023-04-11T20:09:42.400Z,11.26
2023-04-11T20:12:13.253Z,11.20
2023-04-11T20:14:41.612Z,11.15
2023-04-11T20:17:12.657Z,11.12
2023-04-11T20:19:45.862Z,11.09
2023-04-11T20:22:18.792Z,11.12
2023-04-11T20:24:48.090Z,11.20
2023-04-11T20:27:16.686Z,11.26
2023-04-11T20:29:47.617Z,11.29
2023-04-11T20:32:16.643Z,11.27
2023-04-11T20:34:45.019Z,11.22
2023-04-11T20:37:18.385Z,11.15
2023-04-11T20:39:47.998Z,11.06
2023-04-11T20:42:20.784Z,11.01
2023-04-11T20:44:49.777Z,11.00
2023-04-11T20:47:18.121Z,10.98
2023-04-11T20:49:49.947Z,10.98
2023-04-11T20:52:18.560Z,11.02
2023-04-11T20:54:48.418Z,11.08
2023-04-11T20:57:16.700Z,11.12
2023-04-11T20:59:51.193Z,11.11
2023-04-11T21:02:20.644Z,11.11
2023-04-11T21:04:51.933Z,11.10
2023-04-11T21:07:24.620Z,11.10
2023-04-11T21:09:53.011Z,11.11
2023-04-11T21:12:21.480Z,11.12
2023-04-11T21:14:52.457Z,11.09
2023-04-11T21:17:21.923Z,11.06
2023-04-11T21:19:50.192Z,11.04
2023-04-11T21:22:21.936Z,11.04
2023-04-11T21:24:51.700Z,11.03
2023-04-11T21:27:20.079Z,11.04
2023-04-11T21:29:48.651Z,11.04
2023-04-11T21:32:18.461Z,11.04
2023-04-11T21:34:47.354Z,11.03
2023-04-11T21:37:16.141Z,11.02
2023-04-11T21:39:54.045Z,11.01
2023-04-11T21:42:22.486Z,10.99
2023-04-11T21:44:50.773Z,10.98
2023-04-11T21:47:19.134Z,10.99
2023-04-11T21:49:48.129Z,10.99
2023-04-11T21:52:18.654Z,11.00
2023-04-11T21:54:47.108Z,11.01
2023-04-11T21:57:15.465Z,11.03
2023-04-11T21:59:45.148Z,11.05
2023-04-11T22:02:14.700Z,11.07
2023-04-11T22:04:56.431Z,11.08
2023-04-11T22:07:47.712Z,11.09
2023-04-11T22:10:22.733Z,11.10
2023-04-11T22:12:54.706Z,11.06
2023-04-11T22:15:24.577Z,11.05
2023-04-11T22:17:54.945Z,11.07
2023-04-11T22:20:23.231Z,11.09
2023-04-11T22:22:52.463Z,11.12
2023-04-11T22:25:22.707Z,11.11
2023-04-11T22:27:55.009Z,11.10
2023-04-11T22:30:24.680Z,11.10
2023-04-11T22:33:02.776Z,11.14
2023-04-11T22:35:33.165Z,11.14
2023-04-11T22:38:01.776Z,11.12
2023-04-11T22:40:30.912Z,11.07
2023-04-11T22:42:59.792Z,11.02
2023-04-11T22:45:28.510Z,10.95
2023-04-11T22:48:01.137Z,10.89
2023-04-11T22:50:32.387Z,10.82
2023-04-11T22:53:02.330Z,10.79
2023-04-11T22:55:35.574Z,10.80
2023-04-11T22:58:03.929Z,10.79
2023-04-11T23:00:40.988Z,10.78
2023-04-11T23:03:10.339Z,10.73
2023-04-11T23:05:41.339Z,10.62
2023-04-11T23:08:10.563Z,10.54
2023-04-11T23:10:39.064Z,10.47
2023-04-11T23:13:14.485Z,10.44
2023-04-11T23:15:43.173Z,10.45
2023-04-11T23:18:11.341Z,10.47
2023-04-11T23:20:42.304Z,10.46
2023-04-11T23:23:10.508Z,10.43
2023-04-11T23:25:40.749Z,10.36
2023-04-11T23:28:09.037Z,10.31
2023-04-11T23:30:39.142Z,10.23
2023-04-11T23:33:10.476Z,10.16
2023-04-11T23:35:40.885Z,10.13
2023-04-11T23:38:10.684Z,10.14
2023-04-11T23:40:41.640Z,10.15
2023-04-11T23:43:12.285Z,10.10
2023-04-11T23:45:40.489Z,10.07
2023-04-11T23:48:11.098Z,10.03
2023-04-11T23:50:40.288Z,9.97
2023-04-11T23:53:08.507Z,9.94
2023-04-11T23:55:36.923Z,9.94
2023-04-11T23:58:05.284Z,9.97
